Time;durP1;ratioP1;P1;durP2;ratioP2;P2;SDS_P1;SDS_P2;PMS_P1;PMS_P2;Temp;Humidity;BMP_temperature;BMP_pressure;BME280_temperature;BME280_humidity;BME280_pressure;Samples;Min_cycle;Max_cycle;Signal;HPM_P1;HPM_P2
2022/07/31 00:01:14;;;;;;;11.30;10.40;;;14.40;99.90;;;;;;5012533;28;20024;-74
2022/07/31 00:03:40;;;;;;;10.90;9.88;;;14.40;99.90;;;;;;5012210;28;20490;-74
2022/07/31 00:06:06;;;;;;;10.60;9.65;;;14.60;99.90;;;;;;5012935;28;20032;-74
2022/07/31 00:08:32;;;;;;;10.48;9.35;;;14.60;99.90;;;;;;4993920;28;20028;-74
2022/07/31 00:10:58;;;;;;;12.85;10.05;;;14.70;99.90;;;;;;4994552;28;20022;-74
2022/07/31 00:13:23;;;;;;;9.80;8.80;;;14.60;99.90;;;;;;5012300;28;20455;-74
2022/07/31 00:15:49;;;;;;;10.30;9.20;;;14.60;99.90;;;;;;4994693;28;20398;-74
2022/07/31 00:18:14;;;;;;;10.95;10.05;;;14.70;99.90;;;;;;4994372;28;20343;-74
2022/07/31 00:20:40;;;;;;;11.57;10.13;;;14.80;99.90;;;;;;5012109;28;20029;-73
2022/07/31 00:23:06;;;;;;;10.85;9.95;;;14.70;99.90;;;;;;5011910;28;20407;-74
2022/07/31 00:25:31;;;;;;;14.70;10.68;;;14.90;99.90;;;;;;5011804;28;20465;-74
2022/07/31 00:27:57;;;;;;;10.35;9.30;;;14.70;99.90;;;;;;4994106;28;20079;-74
2022/07/31 00:30:23;;;;;;;14.30;11.80;;;14.80;99.90;;;;;;5011869;28;20021;-74
2022/07/31 00:32:48;;;;;;;14.40;12.95;;;14.70;99.90;;;;;;5011948;28;20420;-74
2022/07/31 00:35:15;;;;;;;12.65;11.48;;;14.30;99.90;;;;;;5011780;28;20149;-74
2022/07/31 00:37:41;;;;;;;13.15;11.80;;;14.40;99.90;;;;;;5011751;28;20080;-74
2022/07/31 00:40:09;;;;;;;11.70;10.60;;;14.40;99.90;;;;;;5011662;28;20033;-74
2022/07/31 00:42:35;;;;;;;12.57;11.48;;;14.50;99.90;;;;;;4994048;28;20033;-74
2022/07/31 00:45:01;;;;;;;16.05;13.43;;;14.60;99.90;;;;;;4993991;28;20022;-74
2022/07/31 00:47:27;;;;;;;16.67;14.85;;;14.60;99.90;;;;;;5011649;28;20044;-74
2022/07/31 00:49:52;;;;;;;15.75;13.20;;;14.60;99.90;;;;;;5019194;28;20044;-74
2022/07/31 00:52:19;;;;;;;13.00;11.70;;;14.70;99.90;;;;;;5031564;28;20030;-74
2022/07/31 00:54:44;;;;;;;13.40;12.02;;;14.70;99.90;;;;;;5031207;28;20021;-75
2022/07/31 00:57:10;;;;;;;14.32;13.02;;;14.80;99.90;;;;;;5030117;28;20403;-74
2022/07/31 00:59:36;;;;;;;13.93;12.63;;;14.80;99.90;;;;;;4993832;28;20057;-75
2022/07/31 01:02:02;;;;;;;16.60;15.07;;;14.70;99.90;;;;;;5011440;28;20491;-75
2022/07/31 01:04:28;;;;;;;15.57;14.27;;;14.80;99.90;;;;;;5011234;28;20205;-75
2022/07/31 01:06:54;;;;;;;14.93;13.43;;;14.60;99.90;;;;;;4993295;28;20084;-75
2022/07/31 01:09:19;;;;;;;16.05;14.40;;;14.50;99.90;;;;;;5011426;28;20022;-75
2022/07/31 01:12:03;;;;;;;14.90;13.50;;;14.70;99.90;;;;;;5011245;28;20504;-74
2022/07/31 01:14:34;;;;;;;14.73;13.43;;;14.70;99.90;;;;;;5012914;28;20033;-74
2022/07/31 01:17:03;;;;;;;16.10;14.50;;;14.80;99.90;;;;;;4995882;28;20026;-75
2022/07/31 01:19:31;;;;;;;13.73;12.50;;;15.20;99.90;;;;;;5010846;28;20045;-75
2022/07/31 01:22:15;;;;;;;14.20;12.45;;;14.90;99.90;;;;;;5010814;28;20026;-75
2022/07/31 01:24:44;;;;;;;12.23;11.13;;;14.70;99.90;;;;;;5006672;28;20053;-75
2022/07/31 01:27:34;;;;;;;16.42;13.65;;;14.60;99.90;;;;;;5029189;28;20022;-75
2022/07/31 01:30:03;;;;;;;13.05;11.95;;;14.70;99.90;;;;;;4976657;28;20547;-75
2022/07/31 01:32:34;;;;;;;15.27;13.82;;;14.70;99.90;;;;;;5030749;28;20025;-75
2022/07/31 01:35:28;;;;;;;17.30;15.60;;;14.60;99.90;;;;;;5025908;28;20014;-74
2022/07/31 01:38:10;;;;;;;34.35;16.13;;;14.10;99.90;;;;;;5007605;28;20042;-74
2022/07/31 01:40:43;;;;;;;49.60;17.25;;;13.70;99.90;;;;;;5011018;28;20646;-75
2022/07/31 01:43:21;;;;;;;18.75;16.20;;;13.50;99.90;;;;;;4993362;28;20030;-75
2022/07/31 01:45:51;;;;;;;11.82;10.73;;;13.50;99.90;;;;;;5011032;28;20041;-75
2022/07/31 01:48:18;;;;;;;14.20;12.65;;;13.80;99.90;;;;;;5010910;28;20487;-75
2022/07/31 01:50:46;;;;;;;15.05;13.57;;;14.00;99.90;;;;;;5025329;28;20028;-76
2022/07/31 01:53:16;;;;;;;13.57;12.18;;;14.00;99.90;;;;;;5012700;28;20113;-73
2022/07/31 01:55:43;;;;;;;13.77;12.43;;;13.90;99.90;;;;;;5016959;28;20014;-72
2022/07/31 01:58:10;;;;;;;16.60;15.13;;;14.10;99.90;;;;;;5021032;28;20589;-71
2022/07/31 02:00:37;;;;;;;15.57;14.25;;;13.80;99.90;;;;;;5010879;28;20026;-72
2022/07/31 02:03:04;;;;;;;19.15;17.35;;;13.70;99.90;;;;;;5020847;28;20029;-73
2022/07/31 02:05:32;;;;;;;16.13;14.73;;;13.60;99.90;;;;;;5020984;28;21462;-73
2022/07/31 02:07:58;;;;;;;12.35;11.15;;;13.80;99.90;;;;;;5019919;28;20481;-73
2022/07/31 02:10:24;;;;;;;11.95;10.95;;;13.70;99.90;;;;;;5030066;28;20379;-73
2022/07/31 02:12:50;;;;;;;11.82;10.60;;;13.90;99.90;;;;;;5030135;28;20029;-73
2022/07/31 02:15:17;;;;;;;12.30;11.23;;;14.00;99.90;;;;;;5030205;28;20033;-73
2022/07/31 02:17:45;;;;;;;13.85;12.55;;;14.00;99.90;;;;;;5012094;28;20049;-73
2022/07/31 02:20:12;;;;;;;11.82;10.82;;;14.00;99.90;;;;;;5028745;28;20108;-73
2022/07/31 02:22:38;;;;;;;13.15;11.95;;;14.10;99.90;;;;;;5025820;28;20075;-73
2022/07/31 02:25:05;;;;;;;14.50;12.90;;;14.30;99.90;;;;;;5022519;28;20021;-73
2022/07/31 02:27:32;;;;;;;13.32;12.02;;;14.10;99.90;;;;;;5030230;28;20053;-73
2022/07/31 02:30:01;;;;;;;13.02;11.95;;;14.00;99.90;;;;;;5026467;28;20112;-73
2022/07/31 02:32:28;;;;;;;14.68;13.32;;;13.60;99.90;;;;;;5024160;28;20104;-73
2022/07/31 02:34:55;;;;;;;11.18;10.07;;;13.60;99.90;;;;;;5011382;28;20056;-72
2022/07/31 02:37:22;;;;;;;16.02;14.52;;;13.70;99.90;;;;;;5033862;28;20106;-72
2022/07/31 02:39:51;;;;;;;11.80;10.90;;;13.30;99.90;;;;;;5033139;28;20102;-72
2022/07/31 02:42:18;;;;;;;16.92;15.50;;;13.40;99.90;;;;;;5032352;28;20075;-72
2022/07/31 02:44:45;;;;;;;13.73;12.63;;;13.40;99.90;;;;;;5027804;28;20056;-72
2022/07/31 02:47:11;;;;;;;11.07;10.05;;;13.50;99.90;;;;;;5013765;28;20084;-72
2022/07/31 02:49:37;;;;;;;11.20;9.90;;;13.60;99.90;;;;;;5031958;28;20067;-72
2022/07/31 02:52:04;;;;;;;11.60;9.57;;;13.70;99.90;;;;;;5033458;28;20029;-72
2022/07/31 02:54:31;;;;;;;13.38;12.18;;;13.80;99.90;;;;;;5010000;28;20419;-72
2022/07/31 02:56:57;;;;;;;16.83;15.32;;;13.70;99.90;;;;;;5025867;28;20034;-73
2022/07/31 02:59:23;;;;;;;19.05;16.30;;;13.40;99.90;;;;;;5020067;28;20426;-73
2022/07/31 03:01:48;;;;;;;19.00;17.20;;;13.20;99.90;;;;;;5015648;28;20022;-73
2022/07/31 03:04:14;;;;;;;39.00;25.20;;;13.10;99.90;;;;;;5009907;28;20022;-73
2022/07/31 03:06:40;;;;;;;25.92;15.50;;;13.20;99.90;;;;;;5008378;28;20479;-73
2022/07/31 03:09:05;;;;;;;145.30;26.23;;;13.10;99.90;;;;;;5032804;28;20025;-73
2022/07/31 03:11:31;;;;;;;15.93;14.52;;;12.90;99.90;;;;;;5032953;28;20479;-73
2022/07/31 03:13:59;;;;;;;15.77;14.32;;;12.90;99.90;;;;;;5015430;28;20030;-74
2022/07/31 03:16:27;;;;;;;16.10;14.77;;;13.00;99.90;;;;;;5033146;28;20021;-73
2022/07/31 03:18:53;;;;;;;17.17;15.57;;;13.30;99.90;;;;;;5026005;28;20447;-74
2022/07/31 03:21:20;;;;;;;12.38;11.20;;;13.30;99.90;;;;;;5025956;28;20020;-73
2022/07/31 03:23:46;;;;;;;14.07;12.73;;;13.30;99.90;;;;;;5028399;28;20013;-74
2022/07/31 03:26:13;;;;;;;13.30;12.15;;;13.30;99.90;;;;;;5019928;28;20026;-73
2022/07/31 03:28:39;;;;;;;16.52;15.02;;;13.30;99.90;;;;;;5014845;28;20021;-72
2022/07/31 03:31:06;;;;;;;21.27;19.08;;;13.50;99.90;;;;;;5032689;28;20388;-72
2022/07/31 03:33:32;;;;;;;23.30;19.45;;;13.10;99.90;;;;;;5032600;28;20475;-72
2022/07/31 03:35:58;;;;;;;19.95;18.02;;;12.80;99.90;;;;;;5032715;28;20103;-72
2022/07/31 03:38:24;;;;;;;17.08;15.68;;;12.70;99.90;;;;;;5032730;28;20029;-72
2022/07/31 03:40:50;;;;;;;15.00;13.70;;;12.90;99.90;;;;;;5018167;28;20534;-73
2022/07/31 03:43:17;;;;;;;15.27;13.68;;;13.20;99.90;;;;;;5011406;28;20026;-73
2022/07/31 03:45:43;;;;;;;13.70;12.60;;;13.30;99.90;;;;;;4995260;28;20033;-73
2022/07/31 03:48:10;;;;;;;15.52;14.02;;;13.40;99.90;;;;;;5012379;28;20029;-73
2022/07/31 03:50:37;;;;;;;37.58;19.90;;;13.60;99.90;;;;;;5025588;28;20115;-73
2022/07/31 03:53:04;;;;;;;34.85;23.67;;;13.90;99.90;;;;;;5027623;28;20053;-72
2022/07/31 03:55:32;;;;;;;113.43;33.25;;;13.70;99.90;;;;;;5032672;28;20028;-72
2022/07/31 03:57:58;;;;;;;38.55;21.08;;;13.50;99.90;;;;;;5025210;28;20542;-72
2022/07/31 04:00:26;;;;;;;113.22;28.30;;;13.60;99.90;;;;;;5026326;28;20033;-71
2022/07/31 04:02:54;;;;;;;57.67;25.98;;;13.20;99.90;;;;;;5024667;28;20021;-72
2022/07/31 04:05:19;;;;;;;37.83;26.60;;;13.20;99.90;;;;;;5026420;28;20018;-73
2022/07/31 04:07:45;;;;;;;46.63;26.17;;;13.30;99.90;;;;;;5032146;28;20027;-73
2022/07/31 04:10:11;;;;;;;36.30;25.35;;;13.30;99.90;;;;;;5017774;28;20025;-73
2022/07/31 04:12:36;;;;;;;41.35;26.33;;;13.30;99.90;;;;;;5019208;28;20088;-72
2022/07/31 04:15:03;;;;;;;33.20;29.63;;;13.30;99.90;;;;;;5031679;28;20021;-73
2022/07/31 04:17:28;;;;;;;25.75;23.05;;;13.40;99.90;;;;;;5024542;28;20026;-72
2022/07/31 04:19:54;;;;;;;24.27;21.80;;;13.60;99.90;;;;;;5025104;28;20098;-71
2022/07/31 04:22:19;;;;;;;25.70;23.15;;;13.70;99.90;;;;;;5019591;28;20471;-72
2022/07/31 04:24:45;;;;;;;63.35;27.77;;;13.70;99.90;;;;;;5018428;28;20041;-73
2022/07/31 04:27:11;;;;;;;46.20;28.13;;;13.30;99.90;;;;;;5031779;28;20030;-72
2022/07/31 04:29:36;;;;;;;89.95;30.40;;;13.50;99.90;;;;;;5031650;28;20514;-72
2022/07/31 04:32:02;;;;;;;41.83;24.55;;;13.80;99.90;;;;;;5042624;28;20024;-72
2022/07/31 04:34:28;;;;;;;45.95;30.02;;;13.60;99.90;;;;;;5017252;28;20022;-73
2022/07/31 04:36:54;;;;;;;29.33;26.35;;;13.70;99.90;;;;;;5019005;28;20029;-72
2022/07/31 04:39:19;;;;;;;26.73;24.13;;;13.90;99.90;;;;;;5031200;28;20037;-72
2022/07/31 04:41:45;;;;;;;25.98;23.30;;;14.00;99.90;;;;;;5024362;28;20029;-72
2022/07/31 04:44:10;;;;;;;30.08;23.45;;;14.00;99.90;;;;;;5024959;28;20026;-72
2022/07/31 04:46:36;;;;;;;33.42;29.67;;;14.10;99.90;;;;;;5024806;28;20029;-73
2022/07/31 04:49:02;;;;;;;30.42;26.83;;;14.10;99.90;;;;;;4994307;28;20053;-78
2022/07/31 04:51:27;;;;;;;28.48;25.73;;;14.00;99.90;;;;;;5002120;28;20112;-74
2022/07/31 04:53:53;;;;;;;28.85;26.08;;;14.10;99.90;;;;;;5013507;28;20071;-75
2022/07/31 04:56:40;;;;;;;23.70;21.60;;;14.30;99.90;;;;;;5019249;28;20029;-75
2022/07/31 04:59:11;;;;;;;22.05;20.05;;;14.30;99.90;;;;;;5028300;28;20022;-73
2022/07/31 05:01:38;;;;;;;19.77;18.00;;;14.50;99.90;;;;;;5012183;28;20053;-74
2022/07/31 05:04:05;;;;;;;15.77;14.43;;;14.60;99.90;;;;;;5007116;28;20064;-74
2022/07/31 05:06:39;;;;;;;14.05;12.85;;;14.90;99.90;;;;;;5005383;28;20121;-74
2022/07/31 05:09:07;;;;;;;17.23;15.75;;;15.10;99.90;;;;;;5018772;28;20029;-74
2022/07/31 05:11:33;;;;;;;14.88;13.57;;;15.10;99.90;;;;;;5019407;28;20384;-73
2022/07/31 05:14:01;;;;;;;16.48;14.98;;;15.10;99.90;;;;;;5007526;28;20095;-74
2022/07/31 05:16:28;;;;;;;15.82;14.43;;;15.30;99.90;;;;;;5024602;28;20026;-75
2022/07/31 05:18:55;;;;;;;21.88;19.50;;;15.60;99.90;;;;;;5018315;28;20091;-75
2022/07/31 05:21:20;;;;;;;17.83;16.08;;;15.40;99.90;;;;;;5018525;28;20021;-75
2022/07/31 05:23:47;;;;;;;21.17;19.00;;;15.00;99.90;;;;;;5025003;28;20299;-74
2022/07/31 05:26:14;;;;;;;16.17;14.77;;;14.70;99.90;;;;;;5025158;28;20462;-74
2022/07/31 05:28:40;;;;;;;18.77;16.95;;;15.00;99.90;;;;;;5031188;28;20029;-73
2022/07/31 05:31:07;;;;;;;16.00;14.38;;;15.10;99.90;;;;;;5030433;28;20037;-73
2022/07/31 05:33:33;;;;;;;17.73;16.17;;;15.20;99.90;;;;;;5030413;28;20033;-72
2022/07/31 05:35:59;;;;;;;17.60;16.10;;;15.00;99.90;;;;;;5030310;28;20096;-72
2022/07/31 05:38:26;;;;;;;17.02;15.48;;;15.10;99.90;;;;;;5023871;28;20030;-72
2022/07/31 05:40:52;;;;;;;17.73;16.23;;;15.20;99.90;;;;;;5010680;28;20030;-73
2022/07/31 05:43:17;;;;;;;17.90;16.30;;;15.10;99.90;;;;;;5010615;28;20032;-73
2022/07/31 05:45:45;;;;;;;16.20;14.70;;;15.30;99.90;;;;;;5010334;28;20023;-72
2022/07/31 05:48:11;;;;;;;17.80;16.15;;;15.50;99.90;;;;;;4992580;28;20513;-72
2022/07/31 05:50:36;;;;;;;16.10;14.80;;;15.50;99.90;;;;;;5024389;28;20049;-72
2022/07/31 05:53:02;;;;;;;16.70;15.23;;;15.60;99.90;;;;;;5005809;28;20109;-73
2022/07/31 05:55:27;;;;;;;16.45;14.95;;;15.50;99.90;;;;;;5023835;28;20021;-72
2022/07/31 05:57:53;;;;;;;17.23;15.73;;;15.70;99.90;;;;;;5023976;28;20022;-72
2022/07/31 06:00:20;;;;;;;18.95;17.25;;;16.00;99.90;;;;;;5010780;28;20135;-72
2022/07/31 06:02:46;;;;;;;19.38;17.58;;;16.20;99.90;;;;;;5010655;28;20107;-72
2022/07/31 06:05:11;;;;;;;18.48;16.88;;;16.30;99.90;;;;;;5024484;28;20037;-76
2022/07/31 06:07:37;;;;;;;19.45;17.63;;;16.30;99.90;;;;;;5021093;28;20029;-75
2022/07/31 06:10:03;;;;;;;21.27;19.33;;;16.20;99.90;;;;;;5021477;28;20030;-74
2022/07/31 06:12:29;;;;;;;18.05;16.45;;;16.30;99.90;;;;;;5034317;28;20025;-74
2022/07/31 06:14:55;;;;;;;18.55;16.85;;;16.60;99.90;;;;;;5021340;28;20476;-74
2022/07/31 06:17:20;;;;;;;17.73;16.13;;;16.70;99.90;;;;;;5027992;28;20048;-74
2022/07/31 06:19:46;;;;;;;17.15;15.65;;;16.80;99.90;;;;;;5027304;28;20038;-74
2022/07/31 06:22:11;;;;;;;16.23;14.73;;;17.00;99.90;;;;;;5013603;28;20044;-74
2022/07/31 06:24:37;;;;;;;19.65;17.85;;;17.30;99.90;;;;;;5027359;28;20390;-74
2022/07/31 06:27:03;;;;;;;17.25;15.73;;;17.00;99.90;;;;;;5027266;28;20100;-74
2022/07/31 06:29:29;;;;;;;18.90;17.00;;;17.30;99.90;;;;;;5027357;28;20029;-74
2022/07/31 06:31:55;;;;;;;20.45;18.55;;;17.40;99.90;;;;;;5028624;28;20368;-72
2022/07/31 06:34:24;;;;;;;20.40;18.38;;;17.20;99.90;;;;;;5014107;28;20088;-74
2022/07/31 06:36:49;;;;;;;21.17;18.88;;;17.00;99.90;;;;;;5020283;28;20546;-74
2022/07/31 06:39:16;;;;;;;21.05;19.15;;;17.00;99.90;;;;;;5015118;28;20163;-74
2022/07/31 06:41:48;;;;;;;21.35;19.25;;;17.00;99.90;;;;;;5018243;28;20025;-74
2022/07/31 06:44:14;;;;;;;22.52;20.35;;;17.10;99.90;;;;;;5033554;28;20033;-74
2022/07/31 06:46:40;;;;;;;20.88;18.80;;;17.10;99.90;;;;;;5008623;28;20026;-74
2022/07/31 06:49:06;;;;;;;22.55;20.30;;;17.10;99.90;;;;;;5028047;28;20026;-75
2022/07/31 06:51:31;;;;;;;22.65;20.48;;;17.40;99.90;;;;;;5028723;28;20108;-74
2022/07/31 06:53:58;;;;;;;21.52;19.42;;;17.40;99.90;;;;;;5033522;28;20033;-75
2022/07/31 06:56:24;;;;;;;21.83;19.63;;;17.60;99.90;;;;;;5031029;28;20025;-74
2022/07/31 06:58:49;;;;;;;21.15;19.08;;;17.60;99.90;;;;;;5013103;28;20730;-74
2022/07/31 07:01:15;;;;;;;18.85;17.15;;;17.50;99.90;;;;;;5022199;28;20042;-74
2022/07/31 07:03:41;;;;;;;21.15;18.85;;;17.70;99.90;;;;;;5011752;28;20033;-74
2022/07/31 07:06:06;;;;;;;20.08;18.27;;;17.80;99.90;;;;;;5030887;28;20091;-75
2022/07/31 07:08:32;;;;;;;19.27;17.48;;;18.00;99.90;;;;;;5032523;28;20066;-74
2022/07/31 07:10:57;;;;;;;19.25;17.55;;;18.10;99.90;;;;;;5024181;28;20032;-74
2022/07/31 07:13:25;;;;;;;19.02;17.33;;;18.40;99.90;;;;;;5021201;28;20093;-74
2022/07/31 07:15:50;;;;;;;17.05;15.40;;;18.70;99.90;;;;;;5021514;28;20033;-74
2022/07/31 07:18:17;;;;;;;16.52;15.05;;;19.00;99.90;;;;;;5026723;28;20041;-74
2022/07/31 07:20:42;;;;;;;16.48;14.88;;;19.30;99.90;;;;;;4995199;28;20373;-74
2022/07/31 07:23:08;;;;;;;15.13;13.73;;;19.00;99.90;;;;;;5027800;28;20029;-74
2022/07/31 07:25:33;;;;;;;15.52;14.00;;;19.00;99.90;;;;;;5021280;28;20025;-75
2022/07/31 07:27:59;;;;;;;15.57;14.07;;;19.20;99.90;;;;;;5018531;28;20030;-74
2022/07/31 07:30:27;;;;;;;17.13;15.40;;;19.20;99.90;;;;;;5013146;28;20128;-74
2022/07/31 07:32:53;;;;;;;16.20;14.60;;;18.70;99.90;;;;;;5013074;28;20022;-74
2022/07/31 07:35:19;;;;;;;15.77;14.43;;;19.10;99.90;;;;;;5021093;28;20084;-74
2022/07/31 07:37:45;;;;;;;15.80;14.20;;;18.70;99.90;;;;;;5018695;28;20025;-75
2022/07/31 07:40:11;;;;;;;13.65;12.35;;;18.70;99.90;;;;;;5031630;28;20569;-73
2022/07/31 07:42:36;;;;;;;14.25;12.77;;;18.90;99.90;;;;;;5032374;28;20487;-74
2022/07/31 07:45:03;;;;;;;12.73;11.52;;;19.10;99.90;;;;;;5032888;28;20040;-74
2022/07/31 07:47:28;;;;;;;13.00;11.80;;;19.20;99.90;;;;;;5001684;28;20024;-74
2022/07/31 07:49:54;;;;;;;13.82;12.63;;;18.90;99.90;;;;;;5028671;23;20667;-76
2022/07/31 07:52:19;;;;;;;11.57;10.43;;;19.20;99.90;;;;;;5030824;28;20029;-75
2022/07/31 07:54:45;;;;;;;11.45;10.35;;;19.50;99.90;;;;;;5020817;28;20028;-75
2022/07/31 07:57:19;;;;;;;11.57;8.60;;;19.80;99.90;;;;;;5011508;28;20034;-75
2022/07/31 07:59:46;;;;;;;7.88;7.22;;;19.90;99.90;;;;;;5032947;28;20030;-76
2022/07/31 08:02:12;;;;;;;8.95;8.05;;;20.10;99.90;;;;;;5030277;28;20021;-75
2022/07/31 08:04:38;;;;;;;8.77;7.88;;;20.00;99.90;;;;;;5022832;28;20146;-78
2022/07/31 08:07:03;;;;;;;8.77;7.65;;;20.20;99.90;;;;;;5019910;28;20037;-78
2022/07/31 08:09:30;;;;;;;8.25;7.53;;;20.10;99.90;;;;;;5001880;28;20479;-78
2022/07/31 08:11:55;;;;;;;7.43;6.82;;;20.00;99.90;;;;;;5028159;28;20017;-78
2022/07/31 08:14:21;;;;;;;7.85;7.07;;;20.10;99.90;;;;;;5033034;28;20029;-77
2022/07/31 08:16:47;;;;;;;8.18;7.35;;;20.30;99.90;;;;;;5033026;28;20014;-77
2022/07/31 08:19:12;;;;;;;7.90;7.07;;;20.60;99.90;;;;;;5025378;28;20024;-77
2022/07/31 08:21:38;;;;;;;6.88;6.20;;;20.50;99.90;;;;;;5019174;28;20037;-77
2022/07/31 08:24:05;;;;;;;7.43;6.50;;;20.30;99.90;;;;;;5006500;28;20030;-77
2022/07/31 08:27:22;;;;;;;8.43;7.32;;;20.40;99.90;;;;;;5006063;28;20026;-78
2022/07/31 08:29:16;;;;;;;7.57;6.78;;;20.30;99.90;;;;;;5019079;28;20095;-77
2022/07/31 08:31:42;;;;;;;7.03;6.20;;;20.90;99.90;;;;;;5025762;28;20483;-77
2022/07/31 08:34:08;;;;;;;6.45;5.85;;;20.90;99.90;;;;;;5006360;28;20494;-75
2022/07/31 08:36:34;;;;;;;5.55;4.88;;;20.90;99.90;;;;;;5019419;28;20037;-77
2022/07/31 08:39:02;;;;;;;4.30;3.90;;;21.10;99.90;;;;;;5038476;28;20096;-78
2022/07/31 08:41:28;;;;;;;4.97;3.92;;;20.90;99.90;;;;;;5028802;28;20060;-78
2022/07/31 08:43:57;;;;;;;4.70;4.25;;;21.10;99.90;;;;;;5025743;28;20368;-78
2022/07/31 08:46:24;;;;;;;6.82;6.15;;;21.20;99.90;;;;;;5013648;28;20507;-77
2022/07/31 08:48:52;;;;;;;7.25;6.55;;;21.20;99.90;;;;;;5024072;28;20076;-77
2022/07/31 08:51:20;;;;;;;6.78;6.05;;;21.50;99.90;;;;;;5031688;28;20473;-77
2022/07/31 08:53:49;;;;;;;5.90;5.40;;;21.90;99.90;;;;;;5011270;28;20581;-77
2022/07/31 08:56:15;;;;;;;6.38;5.78;;;22.10;99.90;;;;;;5018688;28;20082;-77
2022/07/31 08:58:41;;;;;;;5.88;5.38;;;22.20;99.90;;;;;;5032079;28;20483;-77
2022/07/31 09:01:13;;;;;;;5.80;5.18;;;22.10;99.90;;;;;;5018746;28;20025;-72
2022/07/31 09:03:39;;;;;;;6.90;5.20;;;22.20;99.90;;;;;;5000272;28;20080;-73
2022/07/31 09:06:05;;;;;;;6.18;4.82;;;22.10;99.90;;;;;;5001111;28;20033;-73
2022/07/31 09:08:35;;;;;;;5.40;4.93;;;22.30;99.90;;;;;;5018279;28;20038;-73
2022/07/31 09:11:06;;;;;;;6.05;5.20;;;22.10;99.90;;;;;;5024846;28;20022;-74
2022/07/31 09:13:36;;;;;;;6.10;4.63;;;22.40;99.90;;;;;;5031537;28;20017;-73
2022/07/31 09:16:02;;;;;;;6.22;5.15;;;22.70;99.90;;;;;;5022801;28;20388;-73
2022/07/31 09:18:28;;;;;;;5.57;4.85;;;22.60;99.90;;;;;;5027050;28;20040;-73
2022/07/31 09:20:58;;;;;;;5.80;4.75;;;22.50;99.90;;;;;;5031133;28;20026;-74
2022/07/31 09:23:26;;;;;;;5.60;5.10;;;22.80;99.90;;;;;;5015535;28;20026;-74
2022/07/31 09:25:57;;;;;;;6.78;5.32;;;22.60;99.90;;;;;;5012577;28;20443;-73
2022/07/31 09:28:37;;;;;;;6.13;4.65;;;22.40;99.90;;;;;;5026170;28;20108;-73
2022/07/31 09:31:05;;;;;;;6.28;4.72;;;22.40;99.90;;;;;;5028508;28;20045;-74
2022/07/31 09:33:31;;;;;;;5.40;4.90;;;22.60;99.90;;;;;;5017279;28;20013;-74
2022/07/31 09:35:58;;;;;;;6.40;5.43;;;22.90;99.90;;;;;;5030939;28;20486;-73
2022/07/31 09:38:30;;;;;;;6.22;4.68;;;23.00;99.90;;;;;;5025947;28;20034;-74
2022/07/31 09:40:56;;;;;;;5.28;4.78;;;23.50;99.90;;;;;;5005876;28;20072;-73
2022/07/31 09:43:26;;;;;;;5.53;4.82;;;23.70;99.90;;;;;;5034084;28;20025;-74
2022/07/31 09:46:02;;;;;;;5.72;4.40;;;24.00;99.90;;;;;;5024756;28;20037;-74
2022/07/31 09:48:29;;;;;;;5.75;4.85;;;23.90;99.90;;;;;;5035111;28;20017;-74
2022/07/31 09:50:59;;;;;;;6.50;5.07;;;23.90;99.90;;;;;;5034131;28;20045;-74
2022/07/31 09:53:25;;;;;;;7.45;4.53;;;23.90;99.90;;;;;;5034602;28;20388;-74
2022/07/31 09:55:52;;;;;;;8.05;5.15;;;23.70;99.90;;;;;;5031651;28;20037;-74
2022/07/31 09:58:18;;;;;;;8.32;4.78;;;23.70;99.90;;;;;;5033515;28;20545;-74
2022/07/31 10:00:46;;;;;;;5.47;5.03;;;23.90;99.90;;;;;;5032955;28;20104;-76
2022/07/31 10:03:13;;;;;;;5.40;4.95;;;24.20;99.90;;;;;;5032578;28;20561;-74
2022/07/31 10:05:42;;;;;;;9.07;5.00;;;24.30;99.90;;;;;;5030112;28;20458;-73
2022/07/31 10:08:10;;;;;;;5.28;4.22;;;24.70;99.90;;;;;;5012434;28;20073;-73
2022/07/31 10:10:36;;;;;;;6.05;4.82;;;24.30;99.90;;;;;;5012328;28;20037;-73
2022/07/31 10:13:06;;;;;;;5.13;4.63;;;24.20;99.90;;;;;;5015082;28;20067;-73
2022/07/31 10:15:35;;;;;;;9.10;5.60;;;24.00;99.90;;;;;;5029698;28;20030;-74
2022/07/31 10:18:02;;;;;;;19.15;14.82;;;23.90;99.90;;;;;;5029221;28;20029;-74
2022/07/31 10:20:31;;;;;;;12.95;10.07;;;24.30;99.90;;;;;;5023316;28;20513;-74
2022/07/31 10:23:16;;;;;;;15.98;11.80;;;24.70;99.90;;;;;;5021796;28;20029;-74
2022/07/31 10:25:49;;;;;;;11.63;8.30;;;24.60;99.90;;;;;;5024134;28;20108;-74
2022/07/31 10:28:15;;;;;;;27.30;18.92;;;25.00;99.90;;;;;;5018205;28;20063;-74
2022/07/31 10:30:41;;;;;;;7.22;6.28;;;25.30;99.90;;;;;;5028726;28;20506;-73
2022/07/31 10:33:08;;;;;;;5.60;4.82;;;25.10;99.90;;;;;;5003719;28;20033;-73
2022/07/31 10:35:41;;;;;;;4.78;4.38;;;25.30;99.90;;;;;;5024394;28;20037;-74
2022/07/31 10:38:33;;;;;;;5.57;4.28;;;25.30;99.90;;;;;;5032527;28;20123;-74
2022/07/31 10:41:11;;;;;;;5.05;4.15;;;25.40;99.90;;;;;;5032786;28;20026;-74
2022/07/31 10:43:51;;;;;;;4.10;3.70;;;24.80;99.90;;;;;;5006752;28;20057;-74
2022/07/31 10:46:33;;;;;;;5.10;3.83;;;25.10;99.90;;;;;;5024695;28;20493;-73
2022/07/31 10:48:59;;;;;;;4.80;4.25;;;25.00;99.90;;;;;;5020640;28;20065;-73
2022/07/31 10:51:25;;;;;;;4.22;3.83;;;25.10;99.90;;;;;;5027485;28;20053;-73
2022/07/31 10:53:59;;;;;;;7.30;4.85;;;24.70;99.90;;;;;;5027401;28;20029;-73
2022/07/31 10:56:26;;;;;;;7.45;4.22;;;24.80;99.90;;;;;;5021994;28;20056;-73
2022/07/31 10:58:56;;;;;;;5.05;4.07;;;25.30;99.90;;;;;;5001751;28;20026;-74
2022/07/31 11:01:25;;;;;;;5.80;3.90;;;25.60;99.90;;;;;;4996692;28;20033;-73
2022/07/31 11:03:59;;;;;;;7.75;3.60;;;25.90;99.90;;;;;;5027458;28;20030;-73
2022/07/31 11:06:25;;;;;;;4.18;3.30;;;26.00;99.90;;;;;;5029807;28;20038;-76
2022/07/31 11:08:53;;;;;;;4.65;3.70;;;25.40;99.90;;;;;;5029335;28;20125;-76
2022/07/31 11:11:31;;;;;;;3.67;3.38;;;25.70;99.90;;;;;;5013642;28;20630;-73
2022/07/31 11:13:59;;;;;;;3.53;3.05;;;25.60;99.90;;;;;;5014042;28;20025;-73
2022/07/31 11:16:25;;;;;;;3.75;3.45;;;25.50;99.90;;;;;;5013191;28;20037;-73
2022/07/31 11:19:05;;;;;;;4.70;3.28;;;25.50;99.90;;;;;;5019237;28;20060;-74
2022/07/31 11:21:39;;;;;;;5.25;4.05;;;25.30;99.90;;;;;;5025370;28;20079;-74
2022/07/31 11:24:22;;;;;;;4.95;3.45;;;25.30;99.90;;;;;;5029365;28;20402;-74
2022/07/31 11:26:56;;;;;;;4.18;3.47;;;25.40;99.90;;;;;;5028712;28;20018;-74
2022/07/31 11:29:40;;;;;;;4.78;3.83;;;25.50;99.90;;;;;;5023518;28;20017;-74
2022/07/31 11:32:13;;;;;;;5.55;3.65;;;26.00;99.90;;;;;;5017640;28;20021;-74
2022/07/31 11:35:06;;;;;;;3.83;3.42;;;25.70;99.90;;;;;;5018132;28;20029;-74
2022/07/31 11:37:31;;;;;;;6.55;3.80;;;26.00;99.90;;;;;;4992963;28;20376;-74
2022/07/31 11:39:58;;;;;;;4.45;3.65;;;26.20;99.90;;;;;;5024526;28;20040;-74
2022/07/31 11:42:28;;;;;;;4.95;3.35;;;26.50;99.90;;;;;;5031311;28;20164;-75
2022/07/31 11:45:02;;;;;;;3.47;3.17;;;26.90;99.90;;;;;;5016545;28;20435;-74
2022/07/31 11:47:40;;;;;;;3.40;3.00;;;26.90;99.90;;;;;;5030824;28;20026;-74
2022/07/31 11:50:07;;;;;;;5.53;2.90;;;26.90;99.90;;;;;;5023377;28;20037;-74
2022/07/31 11:52:32;;;;;;;2.80;2.50;;;27.20;99.90;;;;;;5012657;28;20017;-74
2022/07/31 11:55:09;;;;;;;4.72;3.03;;;27.10;99.90;;;;;;5022721;28;20021;-74
2022/07/31 11:57:35;;;;;;;2.20;2.00;;;27.80;99.90;;;;;;4997744;28;20042;-74
2022/07/31 12:00:13;;;;;;;2.30;1.92;;;27.70;99.90;;;;;;5029004;28;20059;-74
2022/07/31 12:02:43;;;;;;;3.50;2.28;;;27.50;99.90;;;;;;5025974;28;20025;-74
2022/07/31 12:05:12;;;;;;;3.78;2.30;;;27.20;99.90;;;;;;5028756;28;20060;-74
2022/07/31 12:07:41;;;;;;;2.67;2.13;;;27.80;99.90;;;;;;5029837;28;20706;-74
2022/07/31 12:10:12;;;;;;;2.40;1.80;;;27.80;99.90;;;;;;5030829;28;20033;-74
2022/07/31 12:12:39;;;;;;;3.13;1.90;;;27.10;99.90;;;;;;5012933;28;20018;-74
2022/07/31 12:15:17;;;;;;;5.68;2.03;;;26.90;99.90;;;;;;5030318;28;20506;-74
2022/07/31 12:17:43;;;;;;;6.22;2.42;;;27.10;99.90;;;;;;5012563;28;20034;-74
2022/07/31 12:20:09;;;;;;;3.50;2.63;;;26.90;99.90;;;;;;5030901;28;20038;-74
2022/07/31 12:22:35;;;;;;;3.00;2.10;;;26.80;99.90;;;;;;5029379;28;20040;-74
2022/07/31 12:25:01;;;;;;;4.28;2.42;;;26.80;99.90;;;;;;5009900;28;20029;-74
2022/07/31 12:27:27;;;;;;;2.88;2.15;;;26.80;99.90;;;;;;5030164;28;20033;-74
2022/07/31 12:29:53;;;;;;;3.80;2.20;;;27.10;99.90;;;;;;5030121;28;20025;-74
2022/07/31 12:32:25;;;;;;;4.38;2.67;;;27.00;99.90;;;;;;5030169;28;20078;-74
2022/07/31 12:35:02;;;;;;;2.60;2.40;;;27.20;99.90;;;;;;5029696;28;20534;-74
2022/07/31 12:37:28;;;;;;;2.95;2.13;;;27.10;99.90;;;;;;5029041;28;20033;-74